ADDS METAR Data INFO
IDs: Format: Raw Decoded Include TAF

Data at: 0959 UTC 12 Dec 2017

PFKW 120956Z AUTO 03003KT 10SM FEW049 OVC060 M03/M04 A2933 RMK AO2 SLP932 T10281039 FZRANO
PFKW 120856Z AUTO 03005KT 10SM BKN049 OVC060 M03/M04 A2934 RMK AO2 SLP936 T10331039 410111050 58002 FZRANO
PFKW 120756Z AUTO 03005KT 10SM FEW095 M04/M04 A2935 RMK AO2 SLP938 T10391044 FZRANO
PFKW 120656Z AUTO 06005KT 10SM SCT090 M04/M05 A2935 RMK AO2 SLP938 T10391050 FZRANO
PFKW 120556Z AUTO 06006KT 10SM BKN075 M04/M04 A2935 RMK AO2 SLP937 60000 T10391044 11033 21044 51014 FZRANO
PFKW 120356Z AUTO 08004KT 10SM SCT085 OVC110 M03/M04 A2932 RMK AO2 SNE02 SLP928 P0000 T10331039 FZRANO
PFKW 120256Z AUTO 04003KT 8SM -SN BKN040 OVC060 M03/M04 A2931 RMK AO2 SNB47 SLP924 P0000 60000 T10331039 51027 FZRANO
PFKW 120056Z AUTO 00000KT 9SM -SN FEW037 OVC049 M04/M05 A2925 RMK AO2 SNB2359 SLP906 P0000 T10391050 FZRANO
PFKW 120026Z AUTO 14004KT 3SM -SN BR FEW012 SCT020 OVC033 M04/M05 A2924 RMK AO2 SNB2359 P0000 FZRANO
PFKW 120005Z AUTO 13003KT 9SM -SN FEW014 BKN021 OVC047 M04/M05 A2923 RMK AO2 SNB2359 P0000 FZRANO
PFKW 112356Z AUTO 12005KT 10SM SCT020 BKN039 OVC047 M04/M05 A2922 RMK AO2 SNB16E37 SLP896 P0000 60000 T10391050 11033 21050 51029 FZRANO
PFKW 112319Z AUTO 08008KT 10SM -SN FEW020 SCT026 OVC035 M03/M04 A2920 RMK AO2 SNB16 P0000 FZRANO
PFKW 112256Z AUTO 08005KT 10SM SCT020 BKN028 OVC038 M03/M04 A2920 RMK AO2 SNE03 SLP888 P0000 T10331044 FZRANO
PFKW 112156Z AUTO 00000KT 9SM -SN FEW029 SCT037 OVC095 M03/M04 A2917 RMK AO2 SNB19 SLP879 P0000 T10331044 FZRANO
PFKW 112056Z AUTO 33004KT 10SM OVC036 M04/M05 A2914 RMK AO2 SLP867 T10391050 53037 FZRANO
PFKW 111956Z AUTO 01007KT 10SM OVC036 M04/M05 A2910 RMK AO2 SLP855 T10391050 FZRANO
PFKW 111856Z AUTO 01007KT 10SM OVC040 M04/M06 A2906 RMK AO2 SLP840 T10441056 FZRANO
PFKW 111756Z AUTO 36006KT 10SM BKN011 M04/M06 A2903 RMK AO2 SLP831 60000 T10441056 11033 21044 52026 FZRANO
PFKW 111656Z AUTO 36007KT 10SM OVC048 M03/M04 A2901 RMK AO2 SNB29E42 SLP823 P0000 T10331044 FZRANO
PFKW 111556Z AUTO 02008KT 10SM OVC050 M03/M04 A2898 RMK AO2 SLP813 T10331044 FZRANO
PFKW 111529Z AUTO 02007KT 10SM SCT008 OVC060 M03/M04 A2897 RMK AO2 FZRANO
PFKW 111507Z AUTO 02009KT 10SM BKN008 OVC065 M03/M04 A2896 RMK AO2 FZRANO
PFKW 111456Z AUTO 02009KT 10SM SCT008 OVC065 M03/M04 A2895 RMK AO2 SLP805 T10331044 53000 FZRANO
PFKW 111437Z AUTO 02010KT 10SM FEW008 OVC060 M03/M04 A2895 RMK AO2 FZRANO
PFKW 111356Z AUTO 36008KT 10SM FEW040 OVC060 M04/M05 A2894 RMK AO2 SLP800 T10391050 FZRANO
PFKW 111156Z AUTO 02013G19KT 10SM FEW040 BKN095 M04/M06 A2895 RMK AO2 SLP805 60000 T10391056 10000 21044 56026 FZRANO
PFKW 111056Z AUTO 02012G16KT 10SM OVC085 M04/M05 A2897 RMK AO2 SNE05 SLP811 P0000 T10391050 FZRANO
PFKW 110956Z AUTO 36010KT 9SM -SN BKN060 OVC075 M02/M03 A2899 RMK AO2 PRESFR SLP816 P0000 T10221033 FZRANO
PFKW 110856Z AUTO 02010KT 9SM -SN BKN035 OVC046 M01/M02 A2903 RMK AO2 SLP831 P0000 60000 T10111022 400001078 56029 FZRANO
PFKW 110834Z AUTO 02009KT 9SM -SN SCT027 BKN039 OVC048 00/M01 A2904 RMK AO2 P0000 FZRANO
PFKW 110810Z AUTO 02011KT 5SM -SN BR BKN027 OVC033 00/M01 A2905 RMK AO2 P0000 FZRANO
PFKW 110756Z AUTO 04009KT 9SM -SN BKN031 BKN049 OVC060 M01/M02 A2906 RMK AO2 SNB41 SLP840 P0000 T10111017 FZRANO
PFKW 110656Z AUTO 02010KT 10SM BKN075 OVC090 M03/M04 A2908 RMK AO2 SLP848 T10331039 FZRANO
PFKW 110556Z AUTO 03008KT 10SM CLR M04/M05 A2912 RMK AO2 SLP860 T10391050 11039 21072 56041 FZRANO
PFKW 110456Z AUTO 02007KT 10SM CLR M06/M06 A2916 RMK AO2 SLP874 T10561061 FZRANO
PFKW 110356Z AUTO 34005KT 10SM SCT060 OVC110 M06/M06 A2920 RMK AO2 SLP887 T10561061 FZRANO
PFKW 110256Z AUTO 03005KT 10SM BKN055 OVC070 M06/M07 A2924 RMK AO2 SLP902 T10611067 58024 FZRANO
PFKW 110156Z AUTO 02004KT 10SM SCT040 SCT049 OVC060 M07/M07 A2927 RMK AO2 SLP911 T10671072 FZRANO
PFKW 110056Z AUTO 02004KT 10SM OVC080 M07/M08 A2928 RMK AO2 SLP917 T10721078 FZRANO
PFKW 102356Z AUTO 02005KT 10SM OVC065 M07/M08 A2931 RMK AO2 SLP926 T10721083 11072 21078 58020 FZRANO
PFKW 102256Z AUTO 01004KT 10SM FEW110 M08/M09 A2932 RMK AO2 SLP930 T10781089 FZRANO